sensor_id;sensor_type;location;lat;lon;timestamp;temperature;humidity
21612;DHT22;47005;52.292;13.452;2023-02-11T00:01:27;4.60;99.40
21612;DHT22;47005;52.292;13.452;2023-02-11T00:03:54;4.60;99.40
21612;DHT22;47005;52.292;13.452;2023-02-11T00:06:20;4.60;99.80
21612;DHT22;47005;52.292;13.452;2023-02-11T00:08:45;4.60;99.40
21612;DHT22;47005;52.292;13.452;2023-02-11T00:11:13;4.60;99.50
21612;DHT22;47005;52.292;13.452;2023-02-11T00:13:39;4.60;99.50
21612;DHT22;47005;52.292;13.452;2023-02-11T00:16:07;4.70;99.60
21612;DHT22;47005;52.292;13.452;2023-02-11T00:18:33;4.70;99.50
21612;DHT22;47005;52.292;13.452;2023-02-11T00:20:58;4.60;99.50
21612;DHT22;47005;52.292;13.452;2023-02-11T00:23:24;4.70;99.60
21612;DHT22;47005;52.292;13.452;2023-02-11T00:25:49;4.70;99.60
21612;DHT22;47005;52.292;13.452;2023-02-11T00:28:16;4.60;99.50
21612;DHT22;47005;52.292;13.452;2023-02-11T00:30:41;4.70;99.50
21612;DHT22;47005;52.292;13.452;2023-02-11T00:33:07;4.70;99.60
21612;DHT22;47005;52.292;13.452;2023-02-11T00:35:35;4.60;99.50
21612;DHT22;47005;52.292;13.452;2023-02-11T00:38:01;4.70;99.60
21612;DHT22;47005;52.292;13.452;2023-02-11T00:40:26;4.70;99.70
21612;DHT22;47005;52.292;13.452;2023-02-11T00:42:52;4.70;99.70
21612;DHT22;47005;52.292;13.452;2023-02-11T00:45:18;4.70;99.80
21612;DHT22;47005;52.292;13.452;2023-02-11T00:47:45;4.70;99.80
21612;DHT22;47005;52.292;13.452;2023-02-11T00:50:11;4.70;99.80
21612;DHT22;47005;52.292;13.452;2023-02-11T00:52:36;4.80;99.70
21612;DHT22;47005;52.292;13.452;2023-02-11T00:55:02;4.70;99.80
21612;DHT22;47005;52.292;13.452;2023-02-11T00:57:28;4.70;99.80
21612;DHT22;47005;52.292;13.452;2023-02-11T00:59:53;4.70;99.80
21612;DHT22;47005;52.292;13.452;2023-02-11T01:02:19;4.80;99.80
21612;DHT22;47005;52.292;13.452;2023-02-11T01:04:45;4.80;99.80
21612;DHT22;47005;52.292;13.452;2023-02-11T01:07:10;4.80;99.80
21612;DHT22;47005;52.292;13.452;2023-02-11T01:09:39;4.80;99.90
21612;DHT22;47005;52.292;13.452;2023-02-11T01:12:05;4.80;99.90
21612;DHT22;47005;52.292;13.452;2023-02-11T01:14:30;4.80;99.90
21612;DHT22;47005;52.292;13.452;2023-02-11T01:16:56;4.80;99.90
21612;DHT22;47005;52.292;13.452;2023-02-11T01:19:22;4.80;99.90
21612;DHT22;47005;52.292;13.452;2023-02-11T01:21:47;4.90;99.90
21612;DHT22;47005;52.292;13.452;2023-02-11T01:24:13;4.80;99.80
21612;DHT22;47005;52.292;13.452;2023-02-11T01:26:39;4.80;99.80
21612;DHT22;47005;52.292;13.452;2023-02-11T01:29:04;4.90;99.90
21612;DHT22;47005;52.292;13.452;2023-02-11T01:31:30;4.90;99.90
21612;DHT22;47005;52.292;13.452;2023-02-11T01:33:56;4.90;99.90
21612;DHT22;47005;52.292;13.452;2023-02-11T01:36:22;4.80;99.90
21612;DHT22;47005;52.292;13.452;2023-02-11T01:38:47;4.90;99.90
21612;DHT22;47005;52.292;13.452;2023-02-11T01:41:14;4.90;99.90
21612;DHT22;47005;52.292;13.452;2023-02-11T01:43:46;4.90;99.90
21612;DHT22;47005;52.292;13.452;2023-02-11T01:46:29;4.90;99.90
21612;DHT22;47005;52.292;13.452;2023-02-11T01:49:04;4.90;99.90
21612;DHT22;47005;52.292;13.452;2023-02-11T01:54:11;4.90;99.90
21612;DHT22;47005;52.292;13.452;2023-02-11T01:56:58;4.90;99.90
21612;DHT22;47005;52.292;13.452;2023-02-11T02:05:33;4.90;99.90
21612;DHT22;47005;52.292;13.452;2023-02-11T02:08:16;5.00;99.90
21612;DHT22;47005;52.292;13.452;2023-02-11T02:10:46;5.00;99.90
21612;DHT22;47005;52.292;13.452;2023-02-11T02:13:13;5.00;99.90
21612;DHT22;47005;52.292;13.452;2023-02-11T02:16:25;5.00;99.90
21612;DHT22;47005;52.292;13.452;2023-02-11T02:18:55;5.00;99.90
21612;DHT22;47005;52.292;13.452;2023-02-11T02:35:14;5.00;99.90
21612;DHT22;47005;52.292;13.452;2023-02-11T02:37:45;5.00;99.90
21612;DHT22;47005;52.292;13.452;2023-02-11T02:40:18;5.10;99.90
21612;DHT22;47005;52.292;13.452;2023-02-11T02:42:45;5.00;99.90
21612;DHT22;47005;52.292;13.452;2023-02-11T02:45:12;5.00;99.90
21612;DHT22;47005;52.292;13.452;2023-02-11T02:47:39;5.00;99.90
21612;DHT22;47005;52.292;13.452;2023-02-11T02:50:05;5.10;99.90
21612;DHT22;47005;52.292;13.452;2023-02-11T03:12:01;5.10;99.90
21612;DHT22;47005;52.292;13.452;2023-02-11T03:14:29;5.20;99.90
21612;DHT22;47005;52.292;13.452;2023-02-11T03:16:58;5.20;99.90
21612;DHT22;47005;52.292;13.452;2023-02-11T03:19:33;5.20;99.90
21612;DHT22;47005;52.292;13.452;2023-02-11T03:22:02;5.20;99.90
21612;DHT22;47005;52.292;13.452;2023-02-11T03:24:33;5.20;99.90
21612;DHT22;47005;52.292;13.452;2023-02-11T03:27:15;5.20;99.90
21612;DHT22;47005;52.292;13.452;2023-02-11T03:32:24;5.20;99.90
21612;DHT22;47005;52.292;13.452;2023-02-11T03:34:59;5.20;99.90
21612;DHT22;47005;52.292;13.452;2023-02-11T03:37:28;5.30;99.90
21612;DHT22;47005;52.292;13.452;2023-02-11T03:40:05;5.30;99.90
21612;DHT22;47005;52.292;13.452;2023-02-11T03:42:47;5.30;99.90
21612;DHT22;47005;52.292;13.452;2023-02-11T03:45:17;5.30;99.90
21612;DHT22;47005;52.292;13.452;2023-02-11T03:48:01;5.30;99.90
21612;DHT22;47005;52.292;13.452;2023-02-11T03:50:30;5.30;99.90
21612;DHT22;47005;52.292;13.452;2023-02-11T03:53:00;5.30;99.90
21612;DHT22;47005;52.292;13.452;2023-02-11T03:55:27;5.30;99.90
21612;DHT22;47005;52.292;13.452;2023-02-11T03:57:54;5.30;99.90
21612;DHT22;47005;52.292;13.452;2023-02-11T04:00:20;5.40;99.90
21612;DHT22;47005;52.292;13.452;2023-02-11T04:02:46;5.40;99.90
21612;DHT22;47005;52.292;13.452;2023-02-11T04:05:14;5.40;99.90
21612;DHT22;47005;52.292;13.452;2023-02-11T04:07:40;5.40;99.90
21612;DHT22;47005;52.292;13.452;2023-02-11T04:10:07;5.40;99.90
21612;DHT22;47005;52.292;13.452;2023-02-11T04:12:32;5.40;99.90
21612;DHT22;47005;52.292;13.452;2023-02-11T04:14:58;5.40;99.90
21612;DHT22;47005;52.292;13.452;2023-02-11T04:17:24;5.40;99.90
21612;DHT22;47005;52.292;13.452;2023-02-11T04:19:49;5.40;99.90
21612;DHT22;47005;52.292;13.452;2023-02-11T04:22:15;5.40;99.90
21612;DHT22;47005;52.292;13.452;2023-02-11T04:24:41;5.40;99.90
21612;DHT22;47005;52.292;13.452;2023-02-11T04:27:08;5.50;99.90
21612;DHT22;47005;52.292;13.452;2023-02-11T04:29:34;5.40;99.90
21612;DHT22;47005;52.292;13.452;2023-02-11T04:31:59;5.50;99.90
21612;DHT22;47005;52.292;13.452;2023-02-11T04:34:25;5.50;99.90
21612;DHT22;47005;52.292;13.452;2023-02-11T04:36:51;5.50;99.90
21612;DHT22;47005;52.292;13.452;2023-02-11T04:39:17;5.50;99.90
21612;DHT22;47005;52.292;13.452;2023-02-11T04:41:42;5.50;99.90
21612;DHT22;47005;52.292;13.452;2023-02-11T04:44:08;5.50;99.90
21612;DHT22;47005;52.292;13.452;2023-02-11T04:46:33;5.50;99.90
21612;DHT22;47005;52.292;13.452;2023-02-11T04:48:59;5.60;99.90
21612;DHT22;47005;52.292;13.452;2023-02-11T04:51:25;5.50;99.90
21612;DHT22;47005;52.292;13.452;2023-02-11T04:53:50;5.50;99.90
21612;DHT22;47005;52.292;13.452;2023-02-11T04:56:16;5.60;99.90
21612;DHT22;47005;52.292;13.452;2023-02-11T04:58:41;5.50;99.90
21612;DHT22;47005;52.292;13.452;2023-02-11T05:01:08;5.50;99.90
21612;DHT22;47005;52.292;13.452;2023-02-11T05:03:35;5.50;99.90
21612;DHT22;47005;52.292;13.452;2023-02-11T05:06:01;5.60;99.90
21612;DHT22;47005;52.292;13.452;2023-02-11T05:08:27;5.60;99.90
21612;DHT22;47005;52.292;13.452;2023-02-11T05:10:52;5.60;99.90
21612;DHT22;47005;52.292;13.452;2023-02-11T05:13:18;5.60;99.90
21612;DHT22;47005;52.292;13.452;2023-02-11T05:15:44;5.60;99.90
21612;DHT22;47005;52.292;13.452;2023-02-11T05:18:09;5.60;99.90
21612;DHT22;47005;52.292;13.452;2023-02-11T05:20:37;5.60;99.90
21612;DHT22;47005;52.292;13.452;2023-02-11T05:23:03;5.60;99.90
21612;DHT22;47005;52.292;13.452;2023-02-11T05:25:29;5.60;99.90
21612;DHT22;47005;52.292;13.452;2023-02-11T05:27:54;5.60;99.90
21612;DHT22;47005;52.292;13.452;2023-02-11T05:30:20;5.70;99.90
21612;DHT22;47005;52.292;13.452;2023-02-11T05:32:46;5.60;99.90
21612;DHT22;47005;52.292;13.452;2023-02-11T05:35:11;5.70;99.90
21612;DHT22;47005;52.292;13.452;2023-02-11T05:37:37;5.70;99.90
21612;DHT22;47005;52.292;13.452;2023-02-11T05:40:03;5.70;99.90
21612;DHT22;47005;52.292;13.452;2023-02-11T05:42:29;5.70;99.90
21612;DHT22;47005;52.292;13.452;2023-02-11T05:44:54;5.70;99.90
21612;DHT22;47005;52.292;13.452;2023-02-11T05:47:20;5.70;99.90
21612;DHT22;47005;52.292;13.452;2023-02-11T05:49:46;5.70;99.90
21612;DHT22;47005;52.292;13.452;2023-02-11T05:52:11;5.70;99.90
21612;DHT22;47005;52.292;13.452;2023-02-11T05:54:37;5.70;99.90
21612;DHT22;47005;52.292;13.452;2023-02-11T05:57:03;5.70;99.90
21612;DHT22;47005;52.292;13.452;2023-02-11T05:59:28;5.70;99.90
21612;DHT22;47005;52.292;13.452;2023-02-11T06:01:54;5.70;99.90
21612;DHT22;47005;52.292;13.452;2023-02-11T06:04:20;5.70;99.90
21612;DHT22;47005;52.292;13.452;2023-02-11T06:06:46;5.70;99.90
21612;DHT22;47005;52.292;13.452;2023-02-11T06:09:11;5.70;99.90
21612;DHT22;47005;52.292;13.452;2023-02-11T06:11:37;5.70;99.90
21612;DHT22;47005;52.292;13.452;2023-02-11T06:14:03;5.70;99.90
21612;DHT22;47005;52.292;13.452;2023-02-11T06:16:28;5.80;99.90
21612;DHT22;47005;52.292;13.452;2023-02-11T06:18:54;5.80;99.90
21612;DHT22;47005;52.292;13.452;2023-02-11T06:21:20;5.70;99.90
21612;DHT22;47005;52.292;13.452;2023-02-11T06:23:45;5.70;99.90
21612;DHT22;47005;52.292;13.452;2023-02-11T06:26:17;5.80;99.90
21612;DHT22;47005;52.292;13.452;2023-02-11T06:28:42;5.80;99.90
21612;DHT22;47005;52.292;13.452;2023-02-11T06:31:08;5.80;99.90
21612;DHT22;47005;52.292;13.452;2023-02-11T06:33:34;5.80;99.90
21612;DHT22;47005;52.292;13.452;2023-02-11T06:36:00;5.90;99.90
21612;DHT22;47005;52.292;13.452;2023-02-11T06:38:26;5.90;99.90
21612;DHT22;47005;52.292;13.452;2023-02-11T06:40:52;5.90;99.90
21612;DHT22;47005;52.292;13.452;2023-02-11T06:43:17;5.90;99.90
21612;DHT22;47005;52.292;13.452;2023-02-11T06:45:43;5.90;99.90
21612;DHT22;47005;52.292;13.452;2023-02-11T06:48:09;5.90;99.90
21612;DHT22;47005;52.292;13.452;2023-02-11T06:50:34;5.90;99.90
21612;DHT22;47005;52.292;13.452;2023-02-11T06:53:00;6.00;99.90
21612;DHT22;47005;52.292;13.452;2023-02-11T06:55:26;6.00;99.90
21612;DHT22;47005;52.292;13.452;2023-02-11T06:57:52;6.00;99.90
21612;DHT22;47005;52.292;13.452;2023-02-11T07:00:19;5.90;99.90
21612;DHT22;47005;52.292;13.452;2023-02-11T07:02:44;6.00;99.90
21612;DHT22;47005;52.292;13.452;2023-02-11T07:05:10;6.00;99.90
21612;DHT22;47005;52.292;13.452;2023-02-11T07:07:36;6.00;99.90
21612;DHT22;47005;52.292;13.452;2023-02-11T07:10:02;6.00;99.90
21612;DHT22;47005;52.292;13.452;2023-02-11T07:12:29;6.00;99.90
21612;DHT22;47005;52.292;13.452;2023-02-11T07:14:55;6.00;99.90
21612;DHT22;47005;52.292;13.452;2023-02-11T07:17:21;6.00;99.90
21612;DHT22;47005;52.292;13.452;2023-02-11T07:19:47;6.00;99.90
21612;DHT22;47005;52.292;13.452;2023-02-11T07:22:12;6.10;99.90
21612;DHT22;47005;52.292;13.452;2023-02-11T07:24:38;6.10;99.90
21612;DHT22;47005;52.292;13.452;2023-02-11T07:27:04;6.10;99.90
21612;DHT22;47005;52.292;13.452;2023-02-11T07:29:29;6.10;99.90
21612;DHT22;47005;52.292;13.452;2023-02-11T07:31:55;6.10;99.90
21612;DHT22;47005;52.292;13.452;2023-02-11T07:34:21;6.10;99.90
21612;DHT22;47005;52.292;13.452;2023-02-11T07:36:46;6.20;99.90
21612;DHT22;47005;52.292;13.452;2023-02-11T07:39:16;6.20;99.90
21612;DHT22;47005;52.292;13.452;2023-02-11T07:41:41;6.20;99.90
21612;DHT22;47005;52.292;13.452;2023-02-11T07:44:09;6.20;99.90
21612;DHT22;47005;52.292;13.452;2023-02-11T07:46:35;6.20;99.90
21612;DHT22;47005;52.292;13.452;2023-02-11T07:49:01;6.20;99.90
21612;DHT22;47005;52.292;13.452;2023-02-11T07:51:29;6.30;99.90
21612;DHT22;47005;52.292;13.452;2023-02-11T07:53:57;6.30;99.90
21612;DHT22;47005;52.292;13.452;2023-02-11T07:56:23;6.30;99.90
21612;DHT22;47005;52.292;13.452;2023-02-11T07:58:50;6.30;99.90
21612;DHT22;47005;52.292;13.452;2023-02-11T08:01:18;6.30;99.90
21612;DHT22;47005;52.292;13.452;2023-02-11T08:03:44;6.30;99.90
21612;DHT22;47005;52.292;13.452;2023-02-11T08:06:12;6.40;99.90
21612;DHT22;47005;52.292;13.452;2023-02-11T08:08:38;6.40;99.90
21612;DHT22;47005;52.292;13.452;2023-02-11T08:13:44;6.40;99.90
21612;DHT22;47005;52.292;13.452;2023-02-11T08:16:18;6.50;99.90
21612;DHT22;47005;52.292;13.452;2023-02-11T08:18:44;6.50;99.90
21612;DHT22;47005;52.292;13.452;2023-02-11T08:21:10;6.50;99.90
21612;DHT22;47005;52.292;13.452;2023-02-11T08:23:36;6.50;99.90
21612;DHT22;47005;52.292;13.452;2023-02-11T08:26:07;6.50;99.90
21612;DHT22;47005;52.292;13.452;2023-02-11T08:28:38;6.50;99.90
21612;DHT22;47005;52.292;13.452;2023-02-11T08:31:10;6.50;99.90
21612;DHT22;47005;52.292;13.452;2023-02-11T08:33:36;6.60;99.90
21612;DHT22;47005;52.292;13.452;2023-02-11T08:36:11;6.60;99.90
21612;DHT22;47005;52.292;13.452;2023-02-11T08:38:37;6.60;99.90
21612;DHT22;47005;52.292;13.452;2023-02-11T08:41:03;6.60;99.90
21612;DHT22;47005;52.292;13.452;2023-02-11T08:43:29;6.60;99.90
21612;DHT22;47005;52.292;13.452;2023-02-11T08:45:55;6.60;99.90
21612;DHT22;47005;52.292;13.452;2023-02-11T08:48:20;6.60;99.90
21612;DHT22;47005;52.292;13.452;2023-02-11T08:50:46;6.60;99.90
21612;DHT22;47005;52.292;13.452;2023-02-11T08:53:12;6.60;99.90
21612;DHT22;47005;52.292;13.452;2023-02-11T08:55:37;6.70;99.90
21612;DHT22;47005;52.292;13.452;2023-02-11T08:58:03;6.70;99.90
21612;DHT22;47005;52.292;13.452;2023-02-11T09:00:29;6.70;99.90
21612;DHT22;47005;52.292;13.452;2023-02-11T09:02:54;6.70;99.90
21612;DHT22;47005;52.292;13.452;2023-02-11T09:05:20;6.70;99.90
21612;DHT22;47005;52.292;13.452;2023-02-11T09:07:47;6.70;99.90
21612;DHT22;47005;52.292;13.452;2023-02-11T09:10:13;6.70;99.90
21612;DHT22;47005;52.292;13.452;2023-02-11T09:12:38;6.70;99.90
21612;DHT22;47005;52.292;13.452;2023-02-11T09:15:04;6.70;99.90
21612;DHT22;47005;52.292;13.452;2023-02-11T09:17:30;6.70;99.90
21612;DHT22;47005;52.292;13.452;2023-02-11T09:19:56;6.70;99.90
21612;DHT22;47005;52.292;13.452;2023-02-11T09:22:21;6.80;99.90
21612;DHT22;47005;52.292;13.452;2023-02-11T09:24:47;6.80;99.90
21612;DHT22;47005;52.292;13.452;2023-02-11T09:27:12;6.80;99.90
21612;DHT22;47005;52.292;13.452;2023-02-11T09:29:38;6.80;99.90
21612;DHT22;47005;52.292;13.452;2023-02-11T09:32:04;6.80;99.90
21612;DHT22;47005;52.292;13.452;2023-02-11T09:34:29;6.90;99.90
21612;DHT22;47005;52.292;13.452;2023-02-11T09:36:55;6.80;99.90
21612;DHT22;47005;52.292;13.452;2023-02-11T09:39:21;6.90;99.90
21612;DHT22;47005;52.292;13.452;2023-02-11T09:44:38;6.80;99.90
21612;DHT22;47005;52.292;13.452;2023-02-11T09:47:20;6.90;99.90
21612;DHT22;47005;52.292;13.452;2023-02-11T09:49:51;6.90;99.90
21612;DHT22;47005;52.292;13.452;2023-02-11T09:52:42;6.90;99.90
21612;DHT22;47005;52.292;13.452;2023-02-11T09:55:34;6.90;99.90
21612;DHT22;47005;52.292;13.452;2023-02-11T09:58:14;6.90;99.90
21612;DHT22;47005;52.292;13.452;2023-02-11T10:06:53;7.00;99.90
21612;DHT22;47005;52.292;13.452;2023-02-11T10:15:15;7.00;99.90
21612;DHT22;47005;52.292;13.452;2023-02-11T10:20:49;7.00;99.90
21612;DHT22;47005;52.292;13.452;2023-02-11T10:23:25;7.00;99.90
21612;DHT22;47005;52.292;13.452;2023-02-11T10:25:54;7.00;99.90
21612;DHT22;47005;52.292;13.452;2023-02-11T10:28:23;7.10;99.90
21612;DHT22;47005;52.292;13.452;2023-02-11T10:30:58;7.00;99.90
21612;DHT22;47005;52.292;13.452;2023-02-11T10:36:16;7.10;99.90
21612;DHT22;47005;52.292;13.452;2023-02-11T10:38:42;7.10;99.90
21612;DHT22;47005;52.292;13.452;2023-02-11T10:41:12;7.10;99.90
21612;DHT22;47005;52.292;13.452;2023-02-11T10:43:41;7.10;99.90
21612;DHT22;47005;52.292;13.452;2023-02-11T10:46:18;7.10;99.90
21612;DHT22;47005;52.292;13.452;2023-02-11T10:48:50;7.20;99.90
21612;DHT22;47005;52.292;13.452;2023-02-11T10:51:21;7.10;99.90
21612;DHT22;47005;52.292;13.452;2023-02-11T10:56:49;7.10;99.90
21612;DHT22;47005;52.292;13.452;2023-02-11T10:59:19;7.20;99.90
21612;DHT22;47005;52.292;13.452;2023-02-11T11:01:55;7.20;99.90
21612;DHT22;47005;52.292;13.452;2023-02-11T11:04:37;7.20;99.90
21612;DHT22;47005;52.292;13.452;2023-02-11T11:07:21;7.20;99.90
21612;DHT22;47005;52.292;13.452;2023-02-11T11:17:34;7.20;99.90
21612;DHT22;47005;52.292;13.452;2023-02-11T11:22:44;7.20;99.90
21612;DHT22;47005;52.292;13.452;2023-02-11T11:25:21;7.20;99.90
21612;DHT22;47005;52.292;13.452;2023-02-11T11:27:49;7.20;99.90
21612;DHT22;47005;52.292;13.452;2023-02-11T11:30:16;7.20;99.90
21612;DHT22;47005;52.292;13.452;2023-02-11T11:32:42;7.20;99.90
21612;DHT22;47005;52.292;13.452;2023-02-11T11:35:23;7.20;99.90
21612;DHT22;47005;52.292;13.452;2023-02-11T11:38:01;7.20;99.90
21612;DHT22;47005;52.292;13.452;2023-02-11T11:40:29;7.20;99.90
21612;DHT22;47005;52.292;13.452;2023-02-11T11:45:31;7.20;99.90
21612;DHT22;47005;52.292;13.452;2023-02-11T11:48:23;7.20;99.90
21612;DHT22;47005;52.292;13.452;2023-02-11T11:51:00;7.20;99.90
21612;DHT22;47005;52.292;13.452;2023-02-11T11:58:30;7.20;99.90
21612;DHT22;47005;52.292;13.452;2023-02-11T12:12:30;7.30;99.90
21612;DHT22;47005;52.292;13.452;2023-02-11T12:20:59;7.30;99.90
21612;DHT22;47005;52.292;13.452;2023-02-11T12:23:54;7.30;99.90
21612;DHT22;47005;52.292;13.452;2023-02-11T12:26:25;7.30;99.90
21612;DHT22;47005;52.292;13.452;2023-02-11T12:37:40;7.30;99.90
21612;DHT22;47005;52.292;13.452;2023-02-11T12:40:35;7.40;99.90
21612;DHT22;47005;52.292;13.452;2023-02-11T12:43:28;7.40;99.90
21612;DHT22;47005;52.292;13.452;2023-02-11T12:46:50;7.40;99.90
21612;DHT22;47005;52.292;13.452;2023-02-11T12:52:52;7.40;99.90
21612;DHT22;47005;52.292;13.452;2023-02-11T12:55:28;7.40;99.90
21612;DHT22;47005;52.292;13.452;2023-02-11T12:58:01;7.40;99.90
21612;DHT22;47005;52.292;13.452;2023-02-11T13:06:14;7.50;99.90
21612;DHT22;47005;52.292;13.452;2023-02-11T13:11:23;7.50;99.90
21612;DHT22;47005;52.292;13.452;2023-02-11T13:14:03;7.50;99.90
21612;DHT22;47005;52.292;13.452;2023-02-11T13:16:35;7.60;99.90
21612;DHT22;47005;52.292;13.452;2023-02-11T13:27:29;7.60;99.90
21612;DHT22;47005;52.292;13.452;2023-02-11T13:30:27;7.60;99.90
21612;DHT22;47005;52.292;13.452;2023-02-11T13:35:37;7.60;99.90
21612;DHT22;47005;52.292;13.452;2023-02-11T13:38:28;7.70;99.90
21612;DHT22;47005;52.292;13.452;2023-02-11T13:41:15;7.70;99.90
21612;DHT22;47005;52.292;13.452;2023-02-11T13:43:41;7.70;99.90
21612;DHT22;47005;52.292;13.452;2023-02-11T13:46:12;7.70;99.90
21612;DHT22;47005;52.292;13.452;2023-02-11T13:48:48;7.70;99.90
21612;DHT22;47005;52.292;13.452;2023-02-11T13:51:18;7.70;99.90
21612;DHT22;47005;52.292;13.452;2023-02-11T13:53:57;7.70;99.90
21612;DHT22;47005;52.292;13.452;2023-02-11T13:56:35;7.70;99.90
21612;DHT22;47005;52.292;13.452;2023-02-11T13:59:06;7.80;99.90
21612;DHT22;47005;52.292;13.452;2023-02-11T14:04:35;7.80;99.90
21612;DHT22;47005;52.292;13.452;2023-02-11T14:15:48;7.80;99.90
21612;DHT22;47005;52.292;13.452;2023-02-11T14:21:11;7.80;99.90
21612;DHT22;47005;52.292;13.452;2023-02-11T14:23:38;7.80;99.90
21612;DHT22;47005;52.292;13.452;2023-02-11T14:26:27;7.80;99.90
21612;DHT22;47005;52.292;13.452;2023-02-11T14:31:44;7.80;99.90
21612;DHT22;47005;52.292;13.452;2023-02-11T14:37:21;7.90;99.90
21612;DHT22;47005;52.292;13.452;2023-02-11T14:42:35;7.90;99.90
21612;DHT22;47005;52.292;13.452;2023-02-11T14:45:05;7.90;99.90
21612;DHT22;47005;52.292;13.452;2023-02-11T14:50:40;7.90;99.90
21612;DHT22;47005;52.292;13.452;2023-02-11T14:53:14;7.90;99.90
21612;DHT22;47005;52.292;13.452;2023-02-11T14:55:42;8.00;99.90
21612;DHT22;47005;52.292;13.452;2023-02-11T14:58:16;8.00;99.90
21612;DHT22;47005;52.292;13.452;2023-02-11T15:01:17;7.90;99.90
21612;DHT22;47005;52.292;13.452;2023-02-11T15:03:48;8.00;99.90
21612;DHT22;47005;52.292;13.452;2023-02-11T15:06:22;8.00;99.90
21612;DHT22;47005;52.292;13.452;2023-02-11T15:08:56;8.00;99.90
21612;DHT22;47005;52.292;13.452;2023-02-11T15:11:26;8.00;99.90
21612;DHT22;47005;52.292;13.452;2023-02-11T15:13:55;8.00;99.90
21612;DHT22;47005;52.292;13.452;2023-02-11T15:16:24;8.00;99.90
21612;DHT22;47005;52.292;13.452;2023-02-11T15:18:54;8.00;99.90
21612;DHT22;47005;52.292;13.452;2023-02-11T15:21:30;8.00;99.90
21612;DHT22;47005;52.292;13.452;2023-02-11T15:24:28;8.00;99.90
21612;DHT22;47005;52.292;13.452;2023-02-11T15:27:01;8.00;99.90
21612;DHT22;47005;52.292;13.452;2023-02-11T15:29:36;8.10;99.90
21612;DHT22;47005;52.292;13.452;2023-02-11T15:32:16;8.00;99.90
21612;DHT22;47005;52.292;13.452;2023-02-11T15:34:44;8.10;99.90
21612;DHT22;47005;52.292;13.452;2023-02-11T15:37:13;8.10;99.90
21612;DHT22;47005;52.292;13.452;2023-02-11T15:39:41;8.10;99.90
21612;DHT22;47005;52.292;13.452;2023-02-11T15:45:06;8.10;99.90
21612;DHT22;47005;52.292;13.452;2023-02-11T15:47:32;8.10;99.90
21612;DHT22;47005;52.292;13.452;2023-02-11T15:49:58;8.10;99.90
21612;DHT22;47005;52.292;13.452;2023-02-11T15:52:25;8.10;99.90
21612;DHT22;47005;52.292;13.452;2023-02-11T15:54:53;8.10;99.90
21612;DHT22;47005;52.292;13.452;2023-02-11T15:57:21;8.10;99.90
21612;DHT22;47005;52.292;13.452;2023-02-11T15:59:52;8.10;99.90
21612;DHT22;47005;52.292;13.452;2023-02-11T16:02:30;8.20;99.90
21612;DHT22;47005;52.292;13.452;2023-02-11T16:05:07;8.20;99.90
21612;DHT22;47005;52.292;13.452;2023-02-11T16:07:59;8.20;99.90
21612;DHT22;47005;52.292;13.452;2023-02-11T16:10:29;8.20;99.90
21612;DHT22;47005;52.292;13.452;2023-02-11T16:15:36;8.20;99.90
21612;DHT22;47005;52.292;13.452;2023-02-11T16:18:17;8.20;99.90
21612;DHT22;47005;52.292;13.452;2023-02-11T16:20:46;8.30;99.90
21612;DHT22;47005;52.292;13.452;2023-02-11T16:23:27;8.20;99.90
21612;DHT22;47005;52.292;13.452;2023-02-11T16:26:03;8.20;99.90
21612;DHT22;47005;52.292;13.452;2023-02-11T16:28:34;8.20;99.90
21612;DHT22;47005;52.292;13.452;2023-02-11T16:31:02;8.20;99.90
21612;DHT22;47005;52.292;13.452;2023-02-11T16:33:27;8.20;99.90
21612;DHT22;47005;52.292;13.452;2023-02-11T16:35:53;8.20;99.90
21612;DHT22;47005;52.292;13.452;2023-02-11T16:38:19;8.20;99.90
21612;DHT22;47005;52.292;13.452;2023-02-11T16:40:45;8.20;99.90
21612;DHT22;47005;52.292;13.452;2023-02-11T16:43:14;8.20;99.90
21612;DHT22;47005;52.292;13.452;2023-02-11T16:45:42;8.20;99.90
21612;DHT22;47005;52.292;13.452;2023-02-11T16:48:09;8.20;99.90
21612;DHT22;47005;52.292;13.452;2023-02-11T16:50:43;8.20;99.90
21612;DHT22;47005;52.292;13.452;2023-02-11T16:53:09;8.30;99.90
21612;DHT22;47005;52.292;13.452;2023-02-11T16:55:36;8.20;99.90
21612;DHT22;47005;52.292;13.452;2023-02-11T16:58:01;8.30;99.90
21612;DHT22;47005;52.292;13.452;2023-02-11T17:00:27;8.30;99.90
21612;DHT22;47005;52.292;13.452;2023-02-11T17:02:53;8.30;99.90
21612;DHT22;47005;52.292;13.452;2023-02-11T17:05:21;8.30;99.90
21612;DHT22;47005;52.292;13.452;2023-02-11T17:07:47;8.30;99.90
21612;DHT22;47005;52.292;13.452;2023-02-11T17:10:15;8.30;99.90
21612;DHT22;47005;52.292;13.452;2023-02-11T17:12:41;8.30;99.90
21612;DHT22;47005;52.292;13.452;2023-02-11T17:15:07;8.30;99.90
21612;DHT22;47005;52.292;13.452;2023-02-11T17:17:32;8.30;99.90
21612;DHT22;47005;52.292;13.452;2023-02-11T17:19:58;8.30;99.90
21612;DHT22;47005;52.292;13.452;2023-02-11T17:22:24;8.30;99.90
21612;DHT22;47005;52.292;13.452;2023-02-11T17:24:49;8.30;99.90
21612;DHT22;47005;52.292;13.452;2023-02-11T17:27:15;8.30;99.90
21612;DHT22;47005;52.292;13.452;2023-02-11T17:29:41;8.30;99.90
21612;DHT22;47005;52.292;13.452;2023-02-11T17:32:07;8.30;99.90
21612;DHT22;47005;52.292;13.452;2023-02-11T17:34:32;8.30;99.90
21612;DHT22;47005;52.292;13.452;2023-02-11T17:36:58;8.30;99.90
21612;DHT22;47005;52.292;13.452;2023-02-11T17:39:25;8.30;99.90
21612;DHT22;47005;52.292;13.452;2023-02-11T17:41:50;8.30;99.90
21612;DHT22;47005;52.292;13.452;2023-02-11T17:44:16;8.30;99.90
21612;DHT22;47005;52.292;13.452;2023-02-11T17:46:42;8.30;99.90
21612;DHT22;47005;52.292;13.452;2023-02-11T17:49:09;8.40;99.90
21612;DHT22;47005;52.292;13.452;2023-02-11T17:51:37;8.30;99.90
21612;DHT22;47005;52.292;13.452;2023-02-11T17:54:07;8.30;99.90
21612;DHT22;47005;52.292;13.452;2023-02-11T17:56:34;8.30;99.90
21612;DHT22;47005;52.292;13.452;2023-02-11T17:59:01;8.40;99.90
21612;DHT22;47005;52.292;13.452;2023-02-11T18:01:28;8.40;99.90
21612;DHT22;47005;52.292;13.452;2023-02-11T18:03:54;8.30;99.90
21612;DHT22;47005;52.292;13.452;2023-02-11T18:06:20;8.40;99.90
21612;DHT22;47005;52.292;13.452;2023-02-11T18:08:46;8.30;99.90
21612;DHT22;47005;52.292;13.452;2023-02-11T18:11:13;8.30;99.90
21612;DHT22;47005;52.292;13.452;2023-02-11T18:13:40;8.30;99.90
21612;DHT22;47005;52.292;13.452;2023-02-11T18:16:06;8.40;99.90
21612;DHT22;47005;52.292;13.452;2023-02-11T18:18:42;8.40;99.90
21612;DHT22;47005;52.292;13.452;2023-02-11T18:21:16;8.40;99.90
21612;DHT22;47005;52.292;13.452;2023-02-11T18:23:43;8.40;99.90
21612;DHT22;47005;52.292;13.452;2023-02-11T18:26:10;8.40;99.90
21612;DHT22;47005;52.292;13.452;2023-02-11T18:28:37;8.40;99.90
21612;DHT22;47005;52.292;13.452;2023-02-11T18:31:03;8.40;99.90
21612;DHT22;47005;52.292;13.452;2023-02-11T18:33:29;8.40;99.90